This is the latest recevied weather packets stored in our database for station/object JA7ZQY-10. If no packets are shown the sender has not sent any weather packets the latest 10 day(s).
| Time | Temp. | Humidity | Pressure | Rain* | Wind** | Luminosity | Snow |
|---|---|---|---|---|---|---|---|
| 1777792491 | 15.56° C | 67% | 1008.1 hPa | 0 mm | - | - | - |
| 1777791891 | 15.56° C | 64% | 1007.9 hPa | 0 mm | - | - | - |
| 1777791290 | 16.11° C | 61% | 1007.9 hPa | 0 mm | - | - | - |
| 1777790690 | 15.56° C | 60% | 1007.8 hPa | 0 mm | - | - | - |
| 1777790090 | 15.56° C | 58% | 1007.7 hPa | 0 mm | - | - | - |
| 1777789490 | 16.11° C | 60% | 1007.3 hPa | 0 mm | - | - | - |
| 1777788891 | 16.11° C | 58% | 1007.5 hPa | 0 mm | - | - | - |
| 1777788291 | 16.11° C | 59% | 1007.6 hPa | 0 mm | - | - | - |
| 1777787691 | 16.11° C | 57% | 1007.2 hPa | 0 mm | - | - | - |
| 1777787091 | 16.11° C | 57% | 1007.5 hPa | 0 mm | - | - | - |
| 1777786490 | 16.67° C | 58% | 1007.5 hPa | 0 mm | - | - | - |
| 1777785891 | 16.67° C | 58% | 1007.6 hPa | 0 mm | - | - | - |
| 1777785290 | 16.67° C | 60% | 1007.4 hPa | 0 mm | - | - | - |
| 1777784691 | 16.67° C | 60% | 1007.5 hPa | 0 mm | - | - | - |
| 1777784090 | 16.67° C | 61% | 1007.4 hPa | 0 mm | - | - | - |
| 1777783490 | 16.67° C | 59% | 1007.4 hPa | 0 mm | - | - | - |
| 1777782891 | 17.78° C | 53% | 1007.7 hPa | 0 mm | - | - | - |
| 1777782290 | 19.44° C | 50% | 1007.7 hPa | 0 mm | - | - | - |
| 1777781690 | 22.22° C | 33% | 1007.9 hPa | 0 mm | - | - | - |
| 1777781091 | 22.22° C | 32% | 1007.6 hPa | 0 mm | - | - | - |
| 1777780491 | 22.22° C | 31% | 1007.8 hPa | 0 mm | - | - | - |
| 1777779891 | 22.22° C | 33% | 1008 hPa | 0 mm | - | - | - |
| 1777779290 | 22.22° C | 32% | 1008.3 hPa | 0 mm | - | - | - |
| 1777778691 | 22.22° C | 32% | 1008.4 hPa | 0 mm | - | - | - |
| 1777778090 | 21.67° C | 33% | 1008.8 hPa | 0 mm | - | - | - |
* Rain latest hour (hover to see other rain measurements)
** Current wind speed in m/s (hover to see current wind gust speed)